createdAt,value
2018-12-13T00:01:13.465Z,4.40
2018-12-13T00:03:48.280Z,4.50
2018-12-13T00:06:23.278Z,4.60
2018-12-13T00:08:55.418Z,4.50
2018-12-13T00:14:38.515Z,4.50
2018-12-13T00:17:11.263Z,4.40
2018-12-13T00:19:43.923Z,4.40
2018-12-13T00:22:15.115Z,4.30
2018-12-13T00:24:47.728Z,4.30
2018-12-13T00:27:20.675Z,4.20
2018-12-13T00:29:53.587Z,4.10
2018-12-13T00:32:26.773Z,4.00
2018-12-13T00:34:59.428Z,3.90
2018-12-13T00:37:30.475Z,3.80
2018-12-13T00:40:03.212Z,3.80
2018-12-13T00:42:35.765Z,3.70
2018-12-13T00:45:08.690Z,3.70
2018-12-13T00:47:41.423Z,3.60
2018-12-13T00:50:14.321Z,3.50
2018-12-13T00:52:47.132Z,3.50
2018-12-13T00:55:19.885Z,3.50
2018-12-13T00:57:52.882Z,3.50
2018-12-13T01:00:25.668Z,3.40
2018-12-13T01:02:58.661Z,3.40
2018-12-13T01:05:31.606Z,3.20
2018-12-13T01:08:02.388Z,3.20
2018-12-13T01:10:36.590Z,3.10
2018-12-13T01:13:09.353Z,3.10
2018-12-13T01:15:42.100Z,3.00
2018-12-13T01:18:14.925Z,3.00
2018-12-13T01:20:47.855Z,3.00
2018-12-13T01:23:20.809Z,2.90
2018-12-13T01:25:52.984Z,2.80
2018-12-13T01:28:25.777Z,2.80
2018-12-13T01:30:58.711Z,2.80
2018-12-13T01:33:34.915Z,2.80
2018-12-13T01:36:07.211Z,2.80
2018-12-13T01:38:39.786Z,2.70
2018-12-13T01:41:12.876Z,2.70
2018-12-13T01:43:45.596Z,2.70
2018-12-13T01:46:18.648Z,2.60
2018-12-13T01:48:52.609Z,2.70
2018-12-13T01:51:25.386Z,2.70
2018-12-13T01:53:58.194Z,2.70
2018-12-13T01:56:31.133Z,2.70
2018-12-13T01:59:04.149Z,2.70
2018-12-13T02:01:36.732Z,2.70
2018-12-13T02:04:09.611Z,2.70
2018-12-13T02:06:44.649Z,2.60
2018-12-13T02:09:17.048Z,2.60
2018-12-13T02:11:49.402Z,2.60
2018-12-13T02:14:21.921Z,2.60
2018-12-13T02:16:54.687Z,2.60
2018-12-13T02:19:27.604Z,2.50
2018-12-13T02:22:00.487Z,2.50
2018-12-13T02:24:33.260Z,2.40
2018-12-13T02:27:06.248Z,2.40
2018-12-13T02:29:38.908Z,2.40
2018-12-13T02:32:11.807Z,2.40
2018-12-13T02:34:44.446Z,2.40
2018-12-13T02:37:17.349Z,2.40
2018-12-13T02:39:52.523Z,2.30
2018-12-13T02:42:24.912Z,2.30
2018-12-13T02:44:57.806Z,2.20
2018-12-13T02:47:30.565Z,2.10
2018-12-13T02:50:04.224Z,2.20
2018-12-13T02:52:36.308Z,2.10
2018-12-13T02:55:09.000Z,2.10
2018-12-13T02:57:41.784Z,2.10
2018-12-13T03:00:14.636Z,2.00
2018-12-13T03:02:48.757Z,2.00
2018-12-13T03:05:21.790Z,2.00
2018-12-13T03:07:54.593Z,1.90
2018-12-13T03:10:27.248Z,1.80
2018-12-13T03:12:59.521Z,1.70
2018-12-13T03:15:32.518Z,1.50
2018-12-13T03:18:05.601Z,1.40
2018-12-13T03:20:38.317Z,1.30
2018-12-13T03:23:11.076Z,1.20
2018-12-13T03:25:43.971Z,1.00
2018-12-13T03:28:16.537Z,0.90
2018-12-13T03:30:49.254Z,0.90
2018-12-13T03:33:22.038Z,0.80
2018-12-13T03:35:55.081Z,0.80
2018-12-13T03:38:27.826Z,0.80
2018-12-13T03:41:01.877Z,0.80
2018-12-13T03:43:37.801Z,0.90
2018-12-13T03:46:09.991Z,0.90
2018-12-13T03:48:42.859Z,0.90
2018-12-13T03:51:15.603Z,0.80
2018-12-13T03:53:48.337Z,0.80
2018-12-13T03:56:21.249Z,0.70
2018-12-13T03:58:53.852Z,0.60
2018-12-13T04:01:26.414Z,0.60
2018-12-13T04:03:59.061Z,0.50
2018-12-13T04:06:31.941Z,0.50
2018-12-13T04:11:36.135Z,0.50
2018-12-13T04:14:07.177Z,0.50
2018-12-13T04:16:39.969Z,0.50
2018-12-13T04:19:12.879Z,0.50
2018-12-13T04:21:45.863Z,0.50
2018-12-13T04:24:18.633Z,0.60
2018-12-13T04:26:51.365Z,0.70
2018-12-13T04:29:24.301Z,0.60
2018-12-13T04:31:57.184Z,0.60
2018-12-13T04:34:29.968Z,0.60
2018-12-13T04:37:02.754Z,0.70
2018-12-13T04:39:35.428Z,0.70
2018-12-13T04:42:08.243Z,0.70
2018-12-13T04:44:41.059Z,0.70
2018-12-13T04:47:13.840Z,0.70
2018-12-13T04:49:46.733Z,0.70
2018-12-13T04:52:19.701Z,0.60
2018-12-13T04:54:52.394Z,0.70
2018-12-13T04:57:25.291Z,0.70
2018-12-13T04:59:58.158Z,0.70
2018-12-13T05:02:30.887Z,0.70
2018-12-13T05:05:04.037Z,0.70
2018-12-13T05:07:41.745Z,0.70
2018-12-13T05:10:27.061Z,0.70
2018-12-13T05:25:32.221Z,0.70
2018-12-13T05:28:05.018Z,0.70
2018-12-13T05:30:37.773Z,0.70
2018-12-13T05:33:10.386Z,0.70
2018-12-13T05:35:43.296Z,0.80
2018-12-13T05:38:16.681Z,0.70
2018-12-13T05:40:48.731Z,0.80
2018-12-13T05:43:21.501Z,0.80
2018-12-13T05:45:54.271Z,0.70
2018-12-13T05:48:26.261Z,0.70
2018-12-13T05:50:58.258Z,0.70
2018-12-13T05:53:30.970Z,0.70
2018-12-13T05:56:04.001Z,0.80
2018-12-13T05:58:36.511Z,0.80
2018-12-13T06:01:08.559Z,0.90
2018-12-13T06:03:40.571Z,0.90
2018-12-13T06:06:15.601Z,0.80
2018-12-13T06:08:47.946Z,0.80
2018-12-13T06:11:20.900Z,0.80
2018-12-13T06:13:53.745Z,0.80
2018-12-13T06:16:26.436Z,0.90
2018-12-13T06:18:59.312Z,0.90
2018-12-13T06:21:29.955Z,0.90
2018-12-13T06:24:00.796Z,0.80
2018-12-13T06:26:33.729Z,0.80
2018-12-13T06:29:06.721Z,0.80
2018-12-13T06:31:39.740Z,0.80
2018-12-13T06:34:13.164Z,0.80
2018-12-13T06:36:45.954Z,0.90
2018-12-13T06:39:18.832Z,0.90
2018-12-13T06:41:51.793Z,0.90
2018-12-13T06:44:24.679Z,0.90
2018-12-13T06:46:57.412Z,0.90
2018-12-13T06:49:30.222Z,0.90
2018-12-13T06:52:02.659Z,0.90
2018-12-13T06:54:35.363Z,1.00
2018-12-13T06:57:07.482Z,1.00
2018-12-13T06:59:40.228Z,1.00
2018-12-13T07:02:13.140Z,1.00
2018-12-13T07:04:46.007Z,1.00
2018-12-13T07:07:16.996Z,1.00
2018-12-13T07:09:49.663Z,1.00
2018-12-13T07:12:22.439Z,1.10
2018-12-13T07:14:55.474Z,1.10
2018-12-13T07:17:28.104Z,1.20
2018-12-13T07:20:01.020Z,1.30
2018-12-13T07:22:34.009Z,1.30
2018-12-13T07:25:07.023Z,1.30
2018-12-13T07:27:39.722Z,1.40
2018-12-13T07:30:13.029Z,1.50
2018-12-13T07:32:45.320Z,1.50
2018-12-13T07:35:18.319Z,1.50
2018-12-13T07:37:51.212Z,1.60
2018-12-13T07:40:24.023Z,1.50
2018-12-13T07:46:03.930Z,1.50
2018-12-13T07:48:38.364Z,1.60
2018-12-13T07:51:10.447Z,1.60
2018-12-13T07:53:43.087Z,1.70
2018-12-13T07:56:15.782Z,1.70
2018-12-13T07:58:48.830Z,1.80
2018-12-13T08:01:21.814Z,1.70
2018-12-13T08:03:54.414Z,1.80
2018-12-13T08:06:27.384Z,1.90
2018-12-13T08:09:00.234Z,2.00
2018-12-13T08:11:30.849Z,2.00
2018-12-13T08:14:04.069Z,2.10
2018-12-13T08:16:36.827Z,2.10
2018-12-13T08:19:10.220Z,2.10
2018-12-13T08:21:45.162Z,2.10
